createdAt,value
2022-11-01T00:04:07.488Z,50.30
2022-11-01T00:10:20.974Z,50.40
2022-11-01T00:16:35.255Z,50.10
2022-11-01T00:22:51.010Z,49.70
2022-11-01T00:29:09.214Z,49.80
2022-11-01T00:35:26.943Z,50.10
2022-11-01T00:41:40.335Z,50.00
2022-11-01T00:47:54.556Z,50.10
2022-11-01T00:54:10.670Z,49.70
2022-11-01T01:00:23.969Z,49.80
2022-11-01T01:06:43.052Z,49.90
2022-11-01T01:12:56.157Z,50.50
2022-11-01T01:19:09.715Z,49.80
2022-11-01T01:25:22.535Z,49.50
2022-11-01T01:31:34.041Z,49.60
2022-11-01T01:37:48.428Z,49.90
2022-11-01T01:44:02.168Z,50.30
2022-11-01T01:50:14.457Z,50.40
2022-11-01T01:56:31.497Z,50.40
2022-11-01T02:02:49.536Z,50.40
2022-11-01T02:09:07.357Z,50.50
2022-11-01T02:15:22.831Z,50.60
2022-11-01T02:28:29.998Z,50.20
2022-11-01T02:34:43.374Z,50.50
2022-11-01T02:41:00.323Z,50.10
2022-11-01T02:47:17.367Z,50.00
2022-11-01T02:53:30.874Z,49.60
2022-11-01T02:59:53.697Z,49.60
2022-11-01T03:06:14.136Z,49.80
2022-11-01T03:18:39.307Z,49.70
2022-11-01T03:24:55.540Z,49.60
2022-11-01T03:31:08.413Z,49.70
2022-11-01T03:37:23.634Z,49.70
2022-11-01T03:43:34.738Z,49.60
2022-11-01T03:49:46.301Z,49.60
2022-11-01T03:56:00.097Z,49.60
2022-11-01T04:02:13.511Z,49.60
2022-11-01T04:08:31.680Z,49.50
2022-11-01T04:14:59.252Z,49.50
2022-11-01T04:21:13.663Z,49.40
2022-11-01T04:27:28.118Z,49.50
2022-11-01T04:33:44.155Z,49.50
2022-11-01T04:40:01.606Z,49.40
2022-11-01T04:46:14.493Z,49.30
2022-11-01T04:52:30.263Z,49.40
2022-11-01T04:58:46.083Z,49.30
2022-11-01T05:05:00.835Z,49.30
2022-11-01T05:11:16.613Z,49.30
2022-11-01T05:17:29.854Z,49.30
2022-11-01T05:23:45.481Z,49.30
2022-11-01T05:30:00.955Z,49.20
2022-11-01T05:36:18.145Z,49.20
2022-11-01T05:42:31.685Z,49.20
2022-11-01T05:48:44.943Z,49.20
2022-11-01T05:54:55.929Z,49.00
2022-11-01T06:01:12.013Z,49.00
2022-11-01T06:07:29.915Z,49.00
2022-11-01T06:13:43.413Z,49.10
2022-11-01T06:19:56.211Z,48.90
2022-11-01T06:26:16.165Z,48.80
2022-11-01T06:32:27.012Z,48.90
2022-11-01T06:38:41.656Z,49.00
2022-11-01T06:44:55.854Z,49.00
2022-11-01T06:51:12.206Z,48.70
2022-11-01T06:57:30.265Z,48.70
2022-11-01T07:03:47.091Z,48.90
2022-11-01T07:09:58.156Z,48.90
2022-11-01T07:16:15.000Z,49.00
2022-11-01T07:22:23.775Z,49.30
2022-11-01T07:28:39.460Z,48.80
2022-11-01T07:34:53.445Z,48.80
2022-11-01T07:41:08.296Z,48.80
2022-11-01T07:47:24.062Z,48.90
2022-11-01T07:53:39.586Z,48.80
2022-11-01T07:59:56.347Z,48.80
2022-11-01T08:06:05.202Z,48.80
2022-11-01T08:12:22.121Z,48.80
2022-11-01T08:18:34.265Z,48.80
2022-11-01T08:24:49.913Z,48.70
2022-11-01T08:31:04.752Z,48.90
2022-11-01T08:37:21.819Z,48.90
2022-11-01T08:43:40.520Z,48.90
2022-11-01T08:49:54.906Z,48.80
2022-11-01T08:56:12.401Z,48.50
2022-11-01T09:02:29.312Z,48.70
2022-11-01T09:08:38.096Z,48.80
2022-11-01T09:14:52.763Z,49.40
2022-11-01T09:21:09.528Z,48.70
2022-11-01T09:27:23.233Z,48.50
2022-11-01T09:33:36.635Z,48.70
2022-11-01T09:39:51.014Z,48.80
2022-11-01T09:46:07.646Z,48.90
2022-11-01T09:52:20.568Z,48.50
2022-11-01T09:58:43.802Z,48.40
2022-11-01T10:05:18.955Z,48.60
2022-11-01T10:18:23.204Z,48.90
2022-11-01T10:24:35.171Z,48.50
2022-11-01T10:30:54.781Z,48.40
2022-11-01T10:37:09.900Z,48.40
2022-11-01T10:43:24.691Z,48.60
2022-11-01T10:50:00.535Z,48.70
2022-11-01T10:55:54.981Z,48.50
2022-11-01T11:02:14.053Z,48.50
2022-11-01T11:08:26.795Z,48.80
2022-11-01T11:14:40.550Z,48.70
2022-11-01T11:20:57.038Z,48.60
2022-11-01T11:27:13.127Z,48.40
2022-11-01T11:33:27.064Z,48.60
2022-11-01T11:39:40.773Z,48.80
2022-11-01T11:46:03.485Z,49.50
2022-11-01T11:52:28.215Z,49.00
2022-11-01T11:58:41.429Z,49.00
2022-11-01T12:05:04.659Z,48.80
2022-11-01T12:11:20.515Z,48.50
2022-11-01T12:17:43.856Z,48.80
2022-11-01T12:23:58.554Z,49.10
2022-11-01T12:30:14.192Z,49.80
2022-11-01T12:36:27.949Z,50.70
2022-11-01T12:42:41.692Z,49.20
2022-11-01T12:48:58.192Z,49.10
2022-11-01T12:55:20.776Z,49.50
2022-11-01T13:01:42.303Z,49.90
2022-11-01T13:08:05.545Z,50.10
2022-11-01T13:14:30.662Z,50.10
2022-11-01T13:20:55.434Z,50.20
2022-11-01T13:27:10.533Z,50.30
2022-11-01T13:33:23.360Z,50.10
2022-11-01T13:39:40.040Z,49.30
2022-11-01T13:45:56.921Z,49.10
2022-11-01T13:52:12.928Z,49.50
2022-11-01T13:58:29.433Z,49.60
2022-11-01T14:04:51.619Z,49.80
2022-11-01T14:11:08.204Z,49.90
2022-11-01T14:17:34.357Z,50.00
2022-11-01T14:23:57.816Z,50.00
2022-11-01T14:30:23.717Z,50.70
2022-11-01T14:36:40.820Z,50.10
2022-11-01T14:43:04.541Z,50.10
2022-11-01T14:49:25.905Z,50.20
2022-11-01T14:55:43.126Z,50.10
2022-11-01T15:02:02.732Z,50.20
2022-11-01T15:08:24.688Z,50.00
2022-11-01T15:14:40.770Z,49.80
2022-11-01T15:20:55.146Z,49.70
2022-11-01T15:27:18.589Z,49.70
2022-11-01T15:33:34.060Z,49.60
2022-11-01T15:39:48.791Z,49.50
2022-11-01T15:46:07.256Z,49.50
2022-11-01T15:52:26.681Z,49.30
2022-11-01T15:58:41.968Z,49.20
2022-11-01T16:04:56.479Z,49.20
2022-11-01T16:11:10.501Z,49.40
2022-11-01T16:17:37.147Z,50.00
2022-11-01T16:23:58.599Z,49.70
2022-11-01T16:30:31.656Z,49.40
2022-11-01T16:36:49.067Z,49.20
2022-11-01T16:42:59.591Z,48.80
2022-11-01T16:49:22.278Z,48.20
2022-11-01T16:55:38.956Z,47.60
2022-11-01T17:01:59.358Z,47.50
2022-11-01T17:08:16.839Z,47.30
2022-11-01T17:14:35.684Z,47.40
2022-11-01T17:20:52.913Z,47.40
2022-11-01T17:27:09.938Z,47.40
2022-11-01T17:33:25.574Z,47.40
2022-11-01T17:39:39.747Z,47.20
2022-11-01T17:45:53.655Z,47.10
2022-11-01T17:52:07.877Z,47.10
2022-11-01T17:58:19.703Z,47.20
2022-11-01T18:04:35.603Z,47.40
2022-11-01T18:10:49.606Z,47.60
2022-11-01T18:17:06.017Z,47.80
2022-11-01T18:23:21.037Z,47.90
2022-11-01T18:29:37.639Z,47.60
2022-11-01T18:35:51.735Z,47.40
2022-11-01T18:42:01.114Z,47.40
2022-11-01T18:48:22.792Z,47.60
2022-11-01T18:54:38.822Z,47.50
2022-11-01T19:00:55.154Z,47.70
2022-11-01T19:07:09.804Z,47.20
2022-11-01T19:13:26.180Z,47.30
2022-11-01T19:19:41.693Z,47.40
2022-11-01T19:25:55.365Z,48.00
2022-11-01T19:32:06.723Z,47.40
2022-11-01T19:38:22.994Z,47.40
2022-11-01T19:44:37.660Z,47.80
2022-11-01T19:50:53.145Z,47.70
2022-11-01T19:57:13.456Z,47.80
2022-11-01T20:03:29.290Z,47.60
2022-11-01T20:09:47.869Z,47.60
2022-11-01T20:16:00.743Z,47.60
2022-11-01T20:22:15.084Z,47.80
2022-11-01T20:28:28.516Z,47.70
2022-11-01T20:34:42.994Z,47.90
2022-11-01T20:40:55.553Z,48.00
2022-11-01T20:47:10.357Z,48.00
2022-11-01T20:53:31.094Z,48.10
2022-11-01T20:59:46.277Z,48.20
2022-11-01T21:06:02.670Z,48.90
2022-11-01T21:12:12.275Z,48.30
2022-11-01T21:25:20.400Z,48.90
2022-11-01T21:31:37.070Z,49.10
2022-11-01T21:37:53.277Z,49.20
2022-11-01T21:44:26.468Z,49.40
2022-11-01T21:50:38.677Z,49.60
2022-11-01T21:56:49.285Z,49.70
2022-11-01T22:03:01.214Z,49.80
2022-11-01T22:09:20.722Z,49.70
2022-11-01T22:15:33.930Z,49.90
2022-11-01T22:28:03.869Z,50.30
2022-11-01T22:34:17.113Z,50.40
2022-11-01T22:40:37.014Z,50.50
2022-11-01T22:46:58.225Z,50.50
2022-11-01T22:53:13.981Z,50.80
2022-11-01T22:59:33.222Z,51.20
2022-11-01T23:05:46.719Z,51.10
2022-11-01T23:12:13.841Z,51.20
2022-11-01T23:18:30.353Z,51.60
2022-11-01T23:24:46.583Z,51.50
2022-11-01T23:30:59.925Z,51.60
2022-11-01T23:37:16.328Z,51.60
2022-11-01T23:43:28.932Z,51.40
2022-11-01T23:49:44.129Z,51.20
2022-11-01T23:55:57.760Z,51.30
